Time;durP1;ratioP1;P1;durP2;ratioP2;P2;SDS_P1;SDS_P2;PMS_P1;PMS_P2;Temp;Humidity;BMP_temperature;BMP_pressure;BME280_temperature;BME280_humidity;BME280_pressure;Samples;Min_cycle;Max_cycle;Signal;HPM_P1;HPM_P2
2023/10/20 00:01:32;;;;;;;4.50;2.95;;;;;;;1.12;100.00;98644.03;5137185;28;20055;-58
2023/10/20 00:03:58;;;;;;;4.78;3.08;;;;;;;1.40;100.00;98655.34;5137445;28;20339;-56
2023/10/20 00:06:25;;;;;;;3.88;2.72;;;;;;;1.51;100.00;98636.13;5137283;28;20047;-54
2023/10/20 00:08:51;;;;;;;4.55;2.88;;;;;;;1.16;100.00;98617.19;5137315;28;20073;-58
2023/10/20 00:11:17;;;;;;;3.20;2.80;;;;;;;1.23;100.00;98609.41;5136829;28;20061;-55
2023/10/20 00:13:43;;;;;;;4.65;2.83;;;;;;;1.44;100.00;98615.00;5137368;28;20047;-53
2023/10/20 00:16:09;;;;;;;3.50;2.55;;;;;;;1.36;100.00;98616.56;5136826;28;20075;-53
2023/10/20 00:18:47;;;;;;;5.45;2.70;;;;;;;1.21;100.00;98611.66;5137078;28;20416;-54
2023/10/20 00:21:14;;;;;;;2.97;2.22;;;;;;;1.14;100.00;98595.91;5136867;28;20057;-57
2023/10/20 00:23:40;;;;;;;3.53;3.08;;;;;;;1.31;100.00;98603.25;5136768;28;20051;-57
2023/10/20 00:26:07;;;;;;;4.25;3.20;;;;;;;1.39;100.00;98593.53;5136888;28;20057;-55
2023/10/20 00:28:33;;;;;;;4.22;2.83;;;;;;;1.29;100.00;98585.75;5136824;28;20134;-58
2023/10/20 00:30:59;;;;;;;3.45;2.70;;;;;;;1.27;100.00;98594.19;5136962;28;20397;-53
2023/10/20 00:33:25;;;;;;;3.90;2.65;;;;;;;1.55;100.00;98605.47;5136733;28;20047;-57
2023/10/20 00:35:52;;;;;;;3.55;2.50;;;;;;;1.38;100.00;98594.66;5137057;28;20055;-52
2023/10/20 00:38:19;;;;;;;3.15;2.28;;;;;;;1.17;100.00;98576.41;5136569;28;20183;-58
2023/10/20 00:40:46;;;;;;;5.93;3.00;;;;;;;1.28;100.00;98589.56;5136909;28;20155;-54
2023/10/20 00:43:13;;;;;;;4.18;2.45;;;;;;;1.31;100.00;98595.13;5137583;27;20070;-57
2023/10/20 00:45:40;;;;;;;6.18;2.88;;;;;;;1.22;100.00;98596.25;5140082;28;20501;-57
2023/10/20 00:48:07;;;;;;;2.50;2.13;;;;;;;1.33;100.00;98598.31;5140314;28;20073;-55
2023/10/20 00:50:34;;;;;;;5.75;2.97;;;;;;;1.48;100.00;98588.16;5139942;28;20047;-58
2023/10/20 00:53:02;;;;;;;5.07;2.90;;;;;;;1.20;100.00;98596.56;5140290;28;20047;-54
2023/10/20 00:55:30;;;;;;;4.68;2.60;;;;;;;1.72;100.00;98590.34;5139909;28;20051;-57
2023/10/20 00:57:58;;;;;;;3.03;2.53;;;;;;;1.40;100.00;98579.72;5140298;28;20069;-56
2023/10/20 01:00:25;;;;;;;3.92;2.92;;;;;;;1.18;100.00;98580.66;5139819;28;20054;-56
2023/10/20 01:02:52;;;;;;;3.83;2.88;;;;;;;1.17;100.00;98591.81;5140223;28;20050;-58
2023/10/20 01:05:22;;;;;;;4.60;3.45;;;;;;;1.08;100.00;98601.78;5139786;28;20100;-54
2023/10/20 01:07:49;;;;;;;2.75;2.50;;;;;;;0.82;100.00;98605.22;5140259;28;20070;-58
2023/10/20 01:10:15;;;;;;;4.20;2.28;;;;;;;0.93;100.00;98603.03;5139619;28;20058;-53
2023/10/20 01:12:42;;;;;;;5.40;3.03;;;;;;;1.32;100.00;98601.31;5139705;28;20047;-58
2023/10/20 01:15:09;;;;;;;6.32;3.55;;;;;;;1.24;100.00;98594.81;5139849;28;20070;-55
2023/10/20 01:17:36;;;;;;;4.90;3.47;;;;;;;1.44;100.00;98593.41;5139716;28;20055;-58
2023/10/20 01:20:04;;;;;;;6.20;3.35;;;;;;;1.26;100.00;98581.78;5139762;28;20409;-56
2023/10/20 01:22:30;;;;;;;4.35;2.92;;;;;;;1.36;100.00;98588.78;5139723;28;20105;-56
2023/10/20 01:24:57;;;;;;;3.72;3.00;;;;;;;0.88;100.00;98595.88;5139704;28;20043;-55
2023/10/20 01:27:24;;;;;;;5.57;3.40;;;;;;;1.10;100.00;98578.78;5139801;28;20145;-57
2023/10/20 01:29:50;;;;;;;7.38;4.10;;;;;;;1.13;100.00;98571.94;5139813;28;20058;-56
2023/10/20 01:32:16;;;;;;;5.82;4.13;;;;;;;0.95;100.00;98560.31;5139453;28;20051;-55
2023/10/20 01:34:42;;;;;;;4.35;3.53;;;;;;;1.03;100.00;98547.94;5139837;28;20119;-58
2023/10/20 01:37:11;;;;;;;4.88;3.47;;;;;;;0.98;100.00;98534.63;5139158;28;20123;-58
2023/10/20 01:39:37;;;;;;;5.90;4.13;;;;;;;1.02;100.00;98508.56;5139199;28;20054;-55
2023/10/20 01:42:04;;;;;;;5.25;3.25;;;;;;;0.73;100.00;98493.78;5139388;28;20043;-56
2023/10/20 01:44:30;;;;;;;6.95;3.97;;;;;;;0.84;100.00;98495.09;5139646;28;20043;-52
2023/10/20 01:46:56;;;;;;;7.07;4.47;;;;;;;1.08;100.00;98485.72;5139460;28;20057;-56
2023/10/20 01:49:21;;;;;;;5.45;3.67;;;;;;;0.95;100.00;98492.84;5139354;28;20051;-58
2023/10/20 01:51:47;;;;;;;7.07;4.95;;;;;;;1.01;100.00;98461.09;5139272;28;20105;-59
2023/10/20 01:54:13;;;;;;;6.22;3.85;;;;;;;0.95;100.00;98446.97;5138749;27;20142;-58
2023/10/20 01:56:39;;;;;;;6.75;4.50;;;;;;;0.93;100.00;98447.31;5139268;28;20142;-57
2023/10/20 01:59:06;;;;;;;9.85;5.28;;;;;;;1.14;100.00;98439.34;5138934;28;20051;-56
2023/10/20 02:01:32;;;;;;;7.57;4.82;;;;;;;1.28;100.00;98444.53;5139401;28;20469;-56
2023/10/20 02:03:58;;;;;;;7.25;4.65;;;;;;;1.17;100.00;98446.00;5138840;28;20051;-56
2023/10/20 02:06:23;;;;;;;6.88;4.45;;;;;;;0.89;100.00;98443.63;5139288;28;20108;-56
2023/10/20 02:08:50;;;;;;;10.98;4.97;;;;;;;1.15;100.00;98437.44;5138991;28;20138;-53
2023/10/20 02:11:16;;;;;;;8.07;5.40;;;;;;;0.89;100.00;98438.25;5138809;28;20138;-55
2023/10/20 02:13:43;;;;;;;9.75;5.35;;;;;;;1.23;100.00;98439.31;5138770;28;20073;-57
2023/10/20 02:16:10;;;;;;;8.23;4.80;;;;;;;1.15;100.00;98438.22;5138839;28;20051;-56
2023/10/20 02:18:36;;;;;;;8.50;5.45;;;;;;;1.18;100.00;98442.19;5139007;28;20081;-57
2023/10/20 02:21:03;;;;;;;10.38;4.28;;;;;;;0.91;100.00;98443.34;5138701;28;20055;-54
2023/10/20 02:23:29;;;;;;;5.65;3.97;;;;;;;1.25;100.00;98433.59;5138828;28;20408;-53
2023/10/20 02:25:57;;;;;;;7.88;4.72;;;;;;;1.14;100.00;98433.16;5138598;28;20108;-58
2023/10/20 02:28:23;;;;;;;8.95;5.00;;;;;;;0.81;100.00;98449.06;5138808;28;20053;-60
2023/10/20 02:30:49;;;;;;;9.43;4.80;;;;;;;0.87;100.00;98429.69;5138497;28;20078;-58
2023/10/20 02:33:16;;;;;;;9.60;5.72;;;;;;;0.95;100.00;98420.00;5138742;28;20120;-55
2023/10/20 02:35:41;;;;;;;10.00;5.18;;;;;;;1.20;100.00;98404.88;5138263;28;20147;-54
2023/10/20 02:38:08;;;;;;;10.45;5.18;;;;;;;1.14;100.00;98409.63;5138558;28;20043;-52
2023/10/20 02:40:34;;;;;;;8.68;5.28;;;;;;;0.91;100.00;98400.16;5138507;28;20113;-52
2023/10/20 02:43:00;;;;;;;9.40;5.30;;;;;;;1.20;100.00;98387.84;5138487;28;20150;-54
2023/10/20 02:45:26;;;;;;;8.32;5.22;;;;;;;1.27;100.00;98394.38;5138521;28;20134;-58
2023/10/20 02:47:52;;;;;;;10.60;5.88;;;;;;;1.05;100.00;98400.75;5138082;28;20058;-59
2023/10/20 02:50:18;;;;;;;7.03;4.68;;;;;;;0.93;100.00;98397.91;5138407;28;20147;-58
2023/10/20 02:52:44;;;;;;;12.32;5.72;;;;;;;1.23;100.00;98387.22;5138102;28;20058;-57
2023/10/20 02:55:10;;;;;;;9.65;5.82;;;;;;;1.22;100.00;98394.53;5138036;28;20043;-59
2023/10/20 02:57:36;;;;;;;11.13;5.60;;;;;;;1.14;100.00;98392.66;5138092;28;20057;-60
2023/10/20 03:00:04;;;;;;;10.48;5.45;;;;;;;0.84;100.00;98392.53;5138329;28;20465;-54
2023/10/20 03:02:31;;;;;;;9.57;5.47;;;;;;;1.00;100.00;98375.84;5137867;28;20093;-57
2023/10/20 03:04:56;;;;;;;13.50;5.45;;;;;;;1.14;100.00;98368.34;5138612;28;20047;-55
2023/10/20 03:07:25;;;;;;;6.82;5.20;;;;;;;1.08;100.00;98350.75;5137049;27;20138;-58
2023/10/20 03:09:51;;;;;;;10.50;6.28;;;;;;;1.06;100.00;98358.34;5138162;28;20047;-58
2023/10/20 03:12:17;;;;;;;12.10;5.93;;;;;;;1.08;100.00;98361.53;5138031;28;20138;-56
2023/10/20 03:14:44;;;;;;;8.32;5.50;;;;;;;1.09;100.00;98357.72;5137883;28;20047;-58
2023/10/20 03:17:11;;;;;;;9.18;5.38;;;;;;;1.17;100.00;98360.41;5137995;28;20133;-57
2023/10/20 03:19:37;;;;;;;9.57;6.38;;;;;;;1.18;100.00;98355.78;5137774;28;20051;-58
2023/10/20 03:22:03;;;;;;;8.70;4.90;;;;;;;1.07;100.00;98368.06;5137958;28;20082;-55
2023/10/20 03:24:29;;;;;;;7.63;4.50;;;;;;;1.08;100.00;98364.25;5137652;28;20085;-54
2023/10/20 03:26:55;;;;;;;12.52;5.65;;;;;;;1.23;100.00;98363.69;5138109;28;20138;-57
2023/10/20 03:29:21;;;;;;;10.52;5.90;;;;;;;1.04;100.00;98353.28;5137503;28;20069;-55
2023/10/20 03:31:47;;;;;;;12.52;6.05;;;;;;;1.00;100.00;98359.63;5137775;28;20047;-59
2023/10/20 03:34:13;;;;;;;8.88;5.75;;;;;;;1.14;100.00;98352.94;5137326;28;20134;-58
2023/10/20 03:36:40;;;;;;;21.52;7.43;;;;;;;1.23;100.00;98350.19;5137492;28;20409;-58
2023/10/20 03:39:19;;;;;;;9.95;6.40;;;;;;;0.96;100.00;98350.59;5137643;28;20120;-58
2023/10/20 03:41:46;;;;;;;9.50;5.40;;;;;;;1.14;100.00;98344.84;5137453;28;20061;-57
2023/10/20 03:44:12;;;;;;;11.07;6.68;;;;;;;1.07;100.00;98347.25;5137515;28;20409;-57
2023/10/20 03:46:45;;;;;;;10.88;6.55;;;;;;;1.22;100.00;98353.25;5137407;28;20079;-57
2023/10/20 03:49:12;;;;;;;10.73;5.97;;;;;;;1.13;100.00;98350.56;5137698;28;20051;-58
2023/10/20 03:51:38;;;;;;;13.27;7.10;;;;;;;1.18;100.00;98356.59;5137063;28;20411;-56
2023/10/20 03:54:05;;;;;;;9.85;5.85;;;;;;;1.17;100.00;98341.50;5137636;28;20274;-56
2023/10/20 03:56:34;;;;;;;11.48;6.18;;;;;;;0.99;100.00;98333.78;5137222;28;20162;-59
2023/10/20 03:59:01;;;;;;;12.25;6.88;;;;;;;1.20;100.00;98321.19;5137658;28;20113;-55
2023/10/20 04:01:27;;;;;;;10.48;6.43;;;;;;;0.96;100.00;98334.41;5137018;28;20108;-52
2023/10/20 04:03:53;;;;;;;9.63;5.25;;;;;;;0.88;100.00;98323.31;5137313;28;20047;-58
2023/10/20 04:06:19;;;;;;;11.30;7.00;;;;;;;1.06;100.00;98313.25;5137355;28;20290;-58
2023/10/20 04:08:45;;;;;;;10.02;6.10;;;;;;;1.18;100.00;98321.47;5137133;28;20058;-54
2023/10/20 04:11:12;;;;;;;10.88;6.50;;;;;;;1.18;100.00;98329.59;5137311;28;20064;-56
2023/10/20 04:13:39;;;;;;;13.27;6.35;;;;;;;0.93;100.00;98339.34;5136936;28;20125;-59
2023/10/20 04:16:12;;;;;;;9.65;5.95;;;;;;;0.94;100.00;98332.84;5137175;28;20051;-59
2023/10/20 04:18:38;;;;;;;11.40;6.15;;;;;;;0.97;100.00;98330.59;5138818;27;20138;-58
2023/10/20 04:21:04;;;;;;;13.60;6.22;;;;;;;1.04;100.00;98318.22;5140976;28;20139;-56
2023/10/20 04:23:30;;;;;;;7.85;4.63;;;;;;;1.00;100.00;98336.16;5140435;28;20065;-57
2023/10/20 04:25:57;;;;;;;10.82;5.82;;;;;;;1.14;100.00;98322.47;5140890;28;20137;-57
2023/10/20 04:28:32;;;;;;;10.50;6.28;;;;;;;1.20;100.00;98307.69;5140594;28;20043;-54
2023/10/20 04:41:57;;;;;;;10.48;6.45;;;;;;;0.86;100.00;98336.34;5140024;28;20077;-58
2023/10/20 04:58:20;;;;;;;10.05;6.07;;;;;;;0.79;100.00;98341.44;5072134;28;20044;-55
2023/10/20 05:00:46;;;;;;;12.35;6.95;;;;;;;0.87;100.00;98327.16;5077139;28;20052;-59
2023/10/20 05:06:19;;;;;;;9.82;6.25;;;;;;;0.87;100.00;98329.84;5076240;28;20401;-56
2023/10/20 05:08:47;;;;;;;11.77;6.07;;;;;;;0.81;100.00;98316.84;5140906;27;20047;-57
2023/10/20 05:11:13;;;;;;;15.60;6.45;;;;;;;0.96;100.00;98318.22;5138917;28;20046;-56
2023/10/20 05:13:38;;;;;;;9.63;6.80;;;;;;;0.77;100.00;98322.09;5139098;28;20047;-58
2023/10/20 05:16:04;;;;;;;9.20;5.05;;;;;;;0.83;100.00;98314.59;5139417;28;20055;-57
2023/10/20 05:18:31;;;;;;;7.57;5.13;;;;;;;0.68;100.00;98305.13;5139800;28;20043;-56
2023/10/20 05:20:56;;;;;;;9.32;6.03;;;;;;;0.63;100.00;98298.00;5139446;28;20104;-54
2023/10/20 05:23:23;;;;;;;11.13;6.05;;;;;;;0.90;100.00;98291.41;5139498;28;20054;-57
2023/10/20 05:25:49;;;;;;;8.85;5.22;;;;;;;0.82;100.00;98296.84;5138647;28;20130;-53
2023/10/20 05:28:16;;;;;;;8.77;5.72;;;;;;;0.66;100.00;98283.84;5139426;28;20054;-54
2023/10/20 05:30:43;;;;;;;12.23;6.10;;;;;;;0.69;100.00;98285.13;5138041;27;20050;-52
2023/10/20 05:33:10;;;;;;;10.48;5.63;;;;;;;0.80;100.00;98286.38;5139041;28;20055;-56
2023/10/20 05:35:37;;;;;;;9.13;6.50;;;;;;;0.94;100.00;98272.69;5138963;28;20069;-54
2023/10/20 05:38:04;;;;;;;9.20;5.72;;;;;;;0.88;100.00;98282.06;5139341;28;20047;-57
2023/10/20 05:40:30;;;;;;;10.30;6.38;;;;;;;0.70;100.00;98273.22;5138927;28;20079;-52
2023/10/20 05:42:56;;;;;;;10.85;5.75;;;;;;;0.69;100.00;98258.13;5139170;28;20198;-56
2023/10/20 05:45:22;;;;;;;12.55;6.78;;;;;;;0.90;100.00;98267.13;5139034;28;20054;-52
2023/10/20 05:47:48;;;;;;;11.10;5.63;;;;;;;0.85;100.00;98263.81;5138990;28;20058;-53
2023/10/20 05:50:14;;;;;;;9.45;5.18;;;;;;;0.85;100.00;98256.50;5139034;28;20484;-54
2023/10/20 05:52:40;;;;;;;8.82;5.07;;;;;;;1.01;100.00;98250.59;5138905;28;20150;-57
2023/10/20 05:55:07;;;;;;;10.63;5.43;;;;;;;0.45;100.00;98254.06;5139102;28;20317;-57
2023/10/20 05:57:33;;;;;;;10.98;6.82;;;;;;;0.70;100.00;98244.34;5138585;28;20405;-56
2023/10/20 05:59:59;;;;;;;14.25;6.45;;;;;;;0.71;100.00;98242.44;5139222;28;20115;-52
2023/10/20 06:02:25;;;;;;;9.63;5.93;;;;;;;0.76;100.00;98234.16;5138646;28;20193;-56
2023/10/20 06:04:51;;;;;;;11.85;5.70;;;;;;;0.67;100.00;98231.50;5139128;28;20047;-56
2023/10/20 06:07:17;;;;;;;11.32;6.82;;;;;;;1.02;100.00;98209.75;5138572;28;20320;-58
2023/10/20 06:09:43;;;;;;;12.25;6.38;;;;;;;1.04;100.00;98212.94;5138448;28;20051;-57
2023/10/20 06:12:10;;;;;;;12.07;6.03;;;;;;;0.96;100.00;98213.75;5138475;28;20082;-57
2023/10/20 06:14:36;;;;;;;11.35;7.30;;;;;;;0.99;100.00;98209.63;5138582;28;20043;-53
2023/10/20 06:17:03;;;;;;;7.97;5.68;;;;;;;0.82;100.00;98205.09;5138827;28;20047;-57
2023/10/20 06:19:29;;;;;;;8.38;5.40;;;;;;;0.85;100.00;98199.84;5138328;28;20047;-56
2023/10/20 06:21:55;;;;;;;10.65;6.07;;;;;;;0.67;100.00;98207.22;5138652;28;20108;-57
2023/10/20 06:24:22;;;;;;;11.05;6.25;;;;;;;0.97;100.00;98188.38;5138579;28;20069;-55
2023/10/20 06:26:48;;;;;;;10.15;6.68;;;;;;;0.94;100.00;98189.81;5138286;28;20463;-56
2023/10/20 06:29:26;;;;;;;10.80;6.60;;;;;;;0.97;100.00;98193.75;5138082;28;20069;-58
2023/10/20 06:31:57;;;;;;;11.57;5.95;;;;;;;1.05;100.00;98201.00;5138410;28;20051;-56
2023/10/20 06:34:23;;;;;;;10.68;5.55;;;;;;;0.94;100.00;98207.91;5138245;28;20107;-57
2023/10/20 06:36:51;;;;;;;11.25;6.25;;;;;;;0.99;100.00;98207.72;5138433;28;20082;-59
2023/10/20 06:39:18;;;;;;;19.23;6.63;;;;;;;0.86;100.00;98206.03;5138013;28;20083;-59
2023/10/20 06:41:44;;;;;;;9.90;5.28;;;;;;;0.82;100.00;98207.78;5137839;27;20051;-60
2023/10/20 06:44:10;;;;;;;9.88;5.68;;;;;;;1.07;100.00;98198.00;5138283;28;20138;-60
2023/10/20 06:46:36;;;;;;;8.95;5.40;;;;;;;1.16;100.00;98202.22;5138047;28;20074;-58
2023/10/20 06:49:04;;;;;;;13.07;6.70;;;;;;;1.12;100.00;98195.91;5138204;28;20087;-59
2023/10/20 06:51:30;;;;;;;8.90;4.68;;;;;;;1.09;100.00;98187.66;5137704;28;20051;-59
2023/10/20 06:53:56;;;;;;;10.93;6.30;;;;;;;1.06;100.00;98194.50;5138076;28;20097;-58
2023/10/20 06:56:22;;;;;;;7.35;5.13;;;;;;;1.02;100.00;98193.56;5137676;28;20401;-59
2023/10/20 06:58:48;;;;;;;8.73;5.38;;;;;;;0.93;100.00;98188.22;5137788;28;20049;-55
2023/10/20 07:01:14;;;;;;;7.55;5.00;;;;;;;1.06;100.00;98182.91;5137883;28;20397;-60
2023/10/20 07:03:40;;;;;;;10.65;5.93;;;;;;;1.02;100.00;98188.16;5138106;28;20062;-61
2023/10/20 07:06:09;;;;;;;13.85;7.53;;;;;;;1.15;100.00;98179.03;5137988;28;20061;-59
2023/10/20 07:08:35;;;;;;;9.70;5.70;;;;;;;1.06;100.00;98188.31;5137213;28;20055;-59
2023/10/20 07:11:02;;;;;;;15.95;6.30;;;;;;;1.04;100.00;98183.25;5137336;28;20078;-57
2023/10/20 07:13:28;;;;;;;11.43;6.15;;;;;;;1.02;100.00;98196.25;5137250;28;20055;-59
2023/10/20 07:15:56;;;;;;;17.13;6.78;;;;;;;1.21;100.00;98189.66;5137383;28;20401;-59
2023/10/20 07:18:23;;;;;;;15.00;7.32;;;;;;;1.08;100.00;98200.38;5137346;28;20051;-59
2023/10/20 07:20:49;;;;;;;14.63;9.52;;;;;;;0.98;100.00;98208.84;5137711;28;20162;-56
2023/10/20 07:23:17;;;;;;;14.70;7.50;;;;;;;1.10;100.00;98202.72;5137140;28;20440;-57
2023/10/20 07:25:43;;;;;;;15.80;7.45;;;;;;;1.13;100.00;98200.19;5137600;28;20050;-59
2023/10/20 07:28:09;;;;;;;11.73;6.95;;;;;;;1.22;100.00;98197.44;5137230;28;20108;-59
2023/10/20 07:30:35;;;;;;;12.90;7.53;;;;;;;1.03;100.00;98211.34;5137210;28;20329;-58
2023/10/20 07:33:03;;;;;;;13.50;7.28;;;;;;;1.24;100.00;98189.03;5137667;28;20151;-56
2023/10/20 07:35:29;;;;;;;10.20;6.35;;;;;;;1.28;100.00;98198.03;5136997;28;20069;-60
2023/10/20 07:37:55;;;;;;;10.75;6.30;;;;;;;1.03;100.00;98200.53;5137600;28;20051;-55
2023/10/20 07:40:26;;;;;;;11.73;6.90;;;;;;;1.23;100.00;98198.22;5137052;28;20057;-56
2023/10/20 07:42:53;;;;;;;9.95;6.20;;;;;;;1.04;100.00;98210.25;5137243;28;20055;-58
2023/10/20 07:45:19;;;;;;;10.10;5.80;;;;;;;1.12;100.00;98206.69;5136909;28;20089;-60
2023/10/20 07:47:45;;;;;;;9.52;6.57;;;;;;;1.11;100.00;98186.22;5137280;28;20051;-58
2023/10/20 07:50:11;;;;;;;9.77;6.28;;;;;;;1.13;100.00;98193.97;5136920;28;20104;-58
2023/10/20 07:52:37;;;;;;;13.30;7.20;;;;;;;1.40;100.00;98200.84;5136531;27;20492;-57
2023/10/20 07:55:05;;;;;;;11.65;6.72;;;;;;;1.30;100.00;98207.41;5136853;28;20051;-60
2023/10/20 07:57:32;;;;;;;10.18;6.47;;;;;;;1.21;100.00;98206.66;5137203;28;20062;-59
2023/10/20 07:59:57;;;;;;;11.82;6.95;;;;;;;1.35;100.00;98226.09;5137016;28;20047;-60
2023/10/20 08:02:23;;;;;;;10.00;6.18;;;;;;;1.46;100.00;98223.81;5136533;28;20093;-58
2023/10/20 08:04:50;;;;;;;10.73;6.45;;;;;;;1.37;100.00;98237.38;5137056;28;20181;-59
2023/10/20 08:07:16;;;;;;;12.43;6.65;;;;;;;1.57;100.00;98230.44;5136892;28;20066;-59
2023/10/20 08:09:42;;;;;;;12.10;7.43;;;;;;;1.18;100.00;98245.09;5137206;28;20051;-59
2023/10/20 08:12:08;;;;;;;12.38;7.47;;;;;;;1.45;100.00;98243.06;5136612;28;20325;-60
2023/10/20 08:14:35;;;;;;;11.77;7.63;;;;;;;1.30;100.00;98272.22;5137191;28;20197;-60
2023/10/20 08:17:03;;;;;;;10.35;6.88;;;;;;;1.52;100.00;98246.81;5136520;28;20047;-60
2023/10/20 08:19:30;;;;;;;10.32;6.25;;;;;;;1.31;100.00;98249.47;5136939;28;20081;-56
2023/10/20 08:21:55;;;;;;;11.82;7.05;;;;;;;1.30;100.00;98236.28;5136627;28;20047;-60
2023/10/20 08:24:21;;;;;;;12.35;6.68;;;;;;;1.50;100.00;98223.94;5137115;28;20107;-59
2023/10/20 08:26:48;;;;;;;10.60;6.60;;;;;;;1.44;100.00;98219.88;5136503;28;20050;-59
2023/10/20 08:29:16;;;;;;;13.20;5.53;;;;;;;1.42;100.00;98226.38;5136662;28;20051;-58
2023/10/20 08:31:42;;;;;;;19.63;7.45;;;;;;;1.57;100.00;98235.03;5136156;28;20298;-58
2023/10/20 08:34:09;;;;;;;8.52;5.75;;;;;;;1.37;100.00;98234.69;5136438;28;20116;-55
2023/10/20 08:36:35;;;;;;;9.60;6.32;;;;;;;1.89;100.00;98236.22;5134655;28;20341;-60
2023/10/20 08:39:12;;;;;;;10.95;7.22;;;;;;;1.83;100.00;98242.94;5127434;28;20050;-60
2023/10/20 08:41:40;;;;;;;10.93;6.35;;;;;;;1.91;100.00;98257.53;5133967;28;20431;-59
2023/10/20 08:44:07;;;;;;;10.68;6.65;;;;;;;1.70;100.00;98266.44;5134158;28;20054;-58
2023/10/20 08:46:34;;;;;;;11.50;7.15;;;;;;;1.81;100.00;98262.22;5134243;28;20051;-60
2023/10/20 08:49:03;;;;;;;9.07;5.70;;;;;;;1.87;100.00;98260.91;5133956;28;20043;-59
2023/10/20 08:51:31;;;;;;;10.18;6.88;;;;;;;1.76;100.00;98258.91;5124829;28;20073;-58
2023/10/20 08:53:56;;;;;;;10.93;6.10;;;;;;;1.64;100.00;98254.22;5113443;28;20047;-62
2023/10/20 08:56:23;;;;;;;12.77;7.25;;;;;;;1.83;100.00;98254.56;5118538;27;20108;-60
2023/10/20 08:58:49;;;;;;;14.18;8.00;;;;;;;1.88;100.00;98259.75;5136259;28;20108;-59
2023/10/20 09:01:16;;;;;;;14.00;6.57;;;;;;;1.75;100.00;98252.69;5136041;28;20082;-59
2023/10/20 09:03:43;;;;;;;12.45;6.55;;;;;;;1.68;100.00;98263.25;5134174;27;20051;-61
2023/10/20 09:06:12;;;;;;;10.60;6.10;;;;;;;1.74;100.00;98263.84;5159439;27;20055;-60
2023/10/20 09:08:38;;;;;;;10.65;6.95;;;;;;;1.59;100.00;98251.69;5160331;27;20050;-59
2023/10/20 09:11:07;;;;;;;9.93;6.45;;;;;;;1.73;100.00;98256.84;5160536;27;20047;-56
2023/10/20 09:13:34;;;;;;;8.75;5.97;;;;;;;1.87;100.00;98260.09;5159777;27;20047;-57
2023/10/20 09:16:01;;;;;;;14.07;6.15;;;;;;;1.96;100.00;98258.09;5160221;27;20051;-59
2023/10/20 09:18:27;;;;;;;9.45;6.22;;;;;;;1.89;100.00;98280.25;5159511;27;20480;-56
2023/10/20 09:21:01;;;;;;;9.25;5.32;;;;;;;1.74;100.00;98280.06;5146863;27;20051;-57
2023/10/20 09:23:28;;;;;;;10.35;6.30;;;;;;;2.08;100.00;98260.88;5151617;27;20050;-59
2023/10/20 09:25:54;;;;;;;8.80;5.72;;;;;;;1.80;100.00;98263.34;5159806;27;20051;-58
2023/10/20 09:28:20;;;;;;;10.13;6.25;;;;;;;2.25;100.00;98246.41;5160207;27;20297;-58
2023/10/20 09:30:48;;;;;;;10.27;6.78;;;;;;;2.05;100.00;98249.94;5160179;27;20061;-59
2023/10/20 09:33:14;;;;;;;9.80;6.15;;;;;;;1.95;100.00;98250.34;5160175;27;20047;-56
2023/10/20 09:35:41;;;;;;;11.43;5.60;;;;;;;1.98;100.00;98246.97;5159886;27;20401;-58
2023/10/20 09:38:10;;;;;;;8.13;6.10;;;;;;;2.15;100.00;98241.44;5160193;27;20142;-56
2023/10/20 09:40:38;;;;;;;11.98;6.90;;;;;;;2.08;100.00;98241.97;5159831;27;20137;-59
2023/10/20 09:43:10;;;;;;;9.65;6.47;;;;;;;2.11;100.00;98259.44;5159667;27;20552;-61
2023/10/20 09:45:40;;;;;;;11.50;6.88;;;;;;;2.11;100.00;98259.44;5159603;27;20133;-60
2023/10/20 09:48:13;;;;;;;12.50;7.50;;;;;;;2.13;100.00;98270.69;5159669;27;20052;-59
2023/10/20 09:50:40;;;;;;;13.98;7.05;;;;;;;2.16;100.00;98271.97;5159810;27;20046;-59
2023/10/20 09:53:06;;;;;;;9.80;6.43;;;;;;;2.31;100.00;98261.31;5159563;27;20194;-59
2023/10/20 09:55:32;;;;;;;10.98;6.72;;;;;;;2.40;100.00;98257.72;5159577;27;20126;-60
2023/10/20 09:57:59;;;;;;;11.88;7.35;;;;;;;2.15;100.00;98267.69;5159556;27;20050;-60
2023/10/20 10:00:35;;;;;;;11.93;6.63;;;;;;;2.36;100.00;98246.78;5159600;27;20468;-59
2023/10/20 10:03:01;;;;;;;9.73;7.00;;;;;;;2.21;100.00;98258.25;5159371;27;20373;-60
2023/10/20 10:05:30;;;;;;;8.38;6.50;;;;;;;2.14;100.00;98256.06;5159053;27;20341;-60
2023/10/20 10:08:04;;;;;;;12.15;7.38;;;;;;;2.11;100.00;98260.22;5152830;27;20058;-60
2023/10/20 10:10:30;;;;;;;10.15;6.65;;;;;;;2.16;100.00;98248.41;5151113;27;20057;-60
2023/10/20 10:12:58;;;;;;;9.88;6.95;;;;;;;2.22;100.00;98244.38;5151417;27;20043;-59
2023/10/20 10:15:36;;;;;;;11.85;7.22;;;;;;;2.58;100.00;98237.50;5137982;27;20511;-60
2023/10/20 10:18:09;;;;;;;14.13;8.18;;;;;;;2.59;100.00;98253.41;5138866;28;20043;-58
2023/10/20 10:20:42;;;;;;;10.68;6.78;;;;;;;2.58;100.00;98248.34;5138418;28;20051;-60
2023/10/20 10:23:10;;;;;;;8.60;6.80;;;;;;;2.69;100.00;98251.41;5138724;27;20055;-61
2023/10/20 10:25:37;;;;;;;10.48;6.95;;;;;;;2.30;100.00;98277.88;5142315;27;20448;-61
2023/10/20 10:28:11;;;;;;;10.48;7.70;;;;;;;2.50;100.00;98271.66;5159577;27;20057;-61
2023/10/20 10:30:39;;;;;;;11.30;7.05;;;;;;;2.54;100.00;98280.69;5149908;27;20108;-62
2023/10/20 10:33:06;;;;;;;16.05;7.97;;;;;;;2.65;100.00;98288.38;5159417;27;20092;-62
2023/10/20 10:35:32;;;;;;;11.05;6.97;;;;;;;2.77;100.00;98281.09;5158991;27;20055;-62
2023/10/20 10:37:57;;;;;;;15.00;7.57;;;;;;;2.69;100.00;98297.41;5159091;27;20047;-61
2023/10/20 10:40:25;;;;;;;9.55;6.25;;;;;;;2.24;100.00;98295.44;5158929;27;20365;-60
2023/10/20 10:42:52;;;;;;;12.48;7.25;;;;;;;2.31;100.00;98284.88;5158596;27;20084;-61
2023/10/20 10:45:21;;;;;;;9.55;5.65;;;;;;;2.16;100.00;98280.84;5158971;27;20399;-58
2023/10/20 10:47:48;;;;;;;9.85;6.75;;;;;;;2.50;100.00;98260.03;5158623;27;20095;-58
2023/10/20 10:50:15;;;;;;;10.85;7.63;;;;;;;2.71;100.00;98247.25;5158471;27;20137;-58
2023/10/20 10:52:41;;;;;;;15.52;8.65;;;;;;;2.54;100.00;98250.13;5157767;27;20046;-58
2023/10/20 10:55:09;;;;;;;15.43;8.35;;;;;;;2.67;100.00;98243.63;5158239;27;20429;-59
2023/10/20 10:57:35;;;;;;;9.85;7.10;;;;;;;2.85;100.00;98244.22;5158496;27;20092;-58
2023/10/20 11:00:03;;;;;;;12.93;7.47;;;;;;;2.67;100.00;98250.97;5157877;27;20403;-59
2023/10/20 11:02:30;;;;;;;11.73;7.47;;;;;;;2.66;100.00;98250.16;5158507;27;20123;-57
2023/10/20 11:04:56;;;;;;;10.15;7.15;;;;;;;2.61;100.00;98250.38;5158477;27;20056;-59
2023/10/20 11:07:22;;;;;;;13.35;9.45;;;;;;;2.77;100.00;98254.03;5158604;27;20138;-60
2023/10/20 11:09:48;;;;;;;12.98;7.70;;;;;;;2.87;100.00;98249.31;5157873;27;20408;-60
2023/10/20 11:12:14;;;;;;;9.68;6.82;;;;;;;2.77;100.00;98256.72;5149987;27;20133;-60
2023/10/20 11:14:40;;;;;;;10.95;7.25;;;;;;;2.65;100.00;98256.69;5158346;27;20409;-59
2023/10/20 11:17:06;;;;;;;13.05;7.75;;;;;;;2.80;100.00;98239.81;5152976;27;20106;-60
2023/10/20 11:19:32;;;;;;;11.68;8.00;;;;;;;2.53;100.00;98232.31;5146438;27;20427;-60
2023/10/20 11:21:59;;;;;;;11.07;7.45;;;;;;;2.85;100.00;98210.94;5158667;27;20408;-60
2023/10/20 11:24:28;;;;;;;13.32;8.75;;;;;;;2.67;100.00;98216.56;5145991;27;20146;-61
2023/10/20 11:26:56;;;;;;;11.85;8.07;;;;;;;2.75;100.00;98204.84;5151573;27;20046;-60
2023/10/20 11:29:22;;;;;;;12.77;8.68;;;;;;;2.42;100.00;98198.69;5157764;27;20058;-59
2023/10/20 11:31:49;;;;;;;13.70;9.02;;;;;;;2.72;100.00;98191.97;5154088;27;20055;-61
2023/10/20 11:34:15;;;;;;;12.50;8.23;;;;;;;2.62;100.00;98189.72;5148890;27;20150;-61
2023/10/20 11:36:40;;;;;;;12.77;8.15;;;;;;;2.60;100.00;98200.09;5158090;27;20046;-60
2023/10/20 11:39:07;;;;;;;13.32;7.30;;;;;;;2.73;100.00;98192.78;5158186;27;20054;-61
2023/10/20 11:41:33;;;;;;;12.02;7.38;;;;;;;2.67;100.00;98177.91;5158110;27;20062;-60
2023/10/20 11:43:59;;;;;;;10.98;7.35;;;;;;;2.70;100.00;98188.84;5158420;27;20133;-62
2023/10/20 11:46:25;;;;;;;13.63;9.10;;;;;;;2.86;100.00;98199.00;5157799;27;20328;-60
2023/10/20 11:48:51;;;;;;;16.80;9.52;;;;;;;3.03;100.00;98204.19;5158204;27;20115;-60
2023/10/20 11:51:17;;;;;;;9.63;5.85;;;;;;;2.62;100.00;98205.94;5158146;27;20061;-59
2023/10/20 11:53:43;;;;;;;12.05;8.55;;;;;;;2.89;100.00;98201.81;5158233;27;20068;-60
2023/10/20 11:56:10;;;;;;;22.42;8.70;;;;;;;2.86;100.00;98201.69;5157572;27;20042;-61